createdAt,value
2019-03-25T00:09:04.580Z,3.80
2019-03-25T00:23:53.644Z,3.60
2019-03-25T00:38:56.461Z,3.40
2019-03-25T00:53:59.238Z,3.10
2019-03-25T01:09:02.019Z,2.90
2019-03-25T01:24:04.802Z,3.00
2019-03-25T01:39:08.362Z,3.30
2019-03-25T01:54:11.157Z,3.30
2019-03-25T02:09:13.940Z,3.30
2019-03-25T02:24:16.746Z,3.40
2019-03-25T02:39:19.528Z,3.40
2019-03-25T02:54:22.310Z,3.60
2019-03-25T03:09:25.114Z,3.80
2019-03-25T03:24:27.874Z,3.90
2019-03-25T03:39:30.649Z,3.80
2019-03-25T03:54:33.421Z,3.70
2019-03-25T04:09:36.217Z,3.50
2019-03-25T04:24:39.017Z,3.30
2019-03-25T04:39:41.802Z,2.90
2019-03-25T04:54:44.590Z,2.90
2019-03-25T05:09:48.166Z,3.10
2019-03-25T05:24:50.945Z,3.10
2019-03-25T05:39:53.736Z,2.70
2019-03-25T05:54:56.510Z,3.20
2019-03-25T06:09:59.340Z,3.60
2019-03-25T06:25:02.122Z,4.00
2019-03-25T06:40:04.897Z,4.20
2019-03-25T06:55:07.698Z,4.30
2019-03-25T07:10:10.492Z,4.50
2019-03-25T07:25:13.283Z,5.10
2019-03-25T07:40:16.080Z,5.20
2019-03-25T07:55:18.856Z,5.00
2019-03-25T08:10:24.279Z,5.30
2019-03-25T08:25:27.059Z,5.70
2019-03-25T08:40:29.848Z,6.50
2019-03-25T08:55:34.464Z,6.70
2019-03-25T09:10:37.535Z,7.90
2019-03-25T09:25:40.359Z,7.70
2019-03-25T09:40:43.104Z,9.10
2019-03-25T09:55:45.898Z,10.20
2019-03-25T10:10:48.688Z,8.30
2019-03-25T10:25:52.040Z,9.00
2019-03-25T10:40:55.558Z,10.20
2019-03-25T10:55:58.356Z,9.50
2019-03-25T11:11:01.154Z,8.50
2019-03-25T11:26:03.936Z,8.50
2019-03-25T11:41:07.138Z,8.70
2019-03-25T11:56:09.935Z,8.20
2019-03-25T12:11:12.727Z,9.30
2019-03-25T12:26:15.516Z,9.40
2019-03-25T12:41:18.302Z,10.20
2019-03-25T12:56:21.118Z,8.60
2019-03-25T13:11:23.895Z,8.00
2019-03-25T13:26:26.670Z,11.10
2019-03-25T13:41:29.450Z,9.20
2019-03-25T13:56:32.389Z,9.40
2019-03-25T14:11:35.172Z,9.20
2019-03-25T14:26:37.970Z,8.80
2019-03-25T14:41:40.738Z,8.50
2019-03-25T14:56:43.518Z,7.70
2019-03-25T15:11:46.316Z,8.10
2019-03-25T15:26:49.105Z,7.60
2019-03-25T15:41:51.984Z,6.60
2019-03-25T15:56:54.748Z,6.40
2019-03-25T16:11:57.584Z,6.10
2019-03-25T16:27:00.371Z,6.10
2019-03-25T16:42:03.153Z,5.90
2019-03-25T16:57:05.937Z,5.70
2019-03-25T17:12:08.714Z,5.60
2019-03-25T17:27:11.510Z,5.30
2019-03-25T17:42:14.350Z,5.20
2019-03-25T17:57:17.112Z,5.60
2019-03-25T18:12:19.933Z,5.20
2019-03-25T18:27:22.727Z,5.20
2019-03-25T18:42:25.508Z,4.80
2019-03-25T18:57:28.317Z,4.60
2019-03-25T19:12:31.137Z,4.50
2019-03-25T19:27:33.914Z,4.60
2019-03-25T19:42:36.705Z,4.30
2019-03-25T19:57:39.518Z,4.20
2019-03-25T20:12:42.305Z,4.10
2019-03-25T20:27:45.136Z,4.00
2019-03-25T20:42:47.915Z,4.00
2019-03-25T20:57:50.765Z,4.00
2019-03-25T21:12:54.346Z,4.00
2019-03-25T21:27:57.245Z,3.90
2019-03-25T21:43:00.033Z,3.90
2019-03-25T21:58:02.867Z,3.90
2019-03-25T22:13:05.605Z,3.80
2019-03-25T22:28:08.401Z,3.90
2019-03-25T22:43:11.181Z,3.80
2019-03-25T22:58:14.392Z,3.70
2019-03-25T23:13:17.167Z,3.70
2019-03-25T23:28:19.946Z,3.60
2019-03-25T23:43:22.730Z,3.80
2019-03-25T23:58:25.508Z,3.50
